sensor_id;sensor_type;location;lat;lon;timestamp;P1;durP1;ratioP1;P2;durP2;ratioP2
41532;SDS011;27262;-35.248;149.138;2023-05-10T00:02:11;1.30;;;0.98;;
41532;SDS011;27262;-35.248;149.138;2023-05-10T00:04:41;4.72;;;0.90;;
41532;SDS011;27262;-35.248;149.138;2023-05-10T00:07:12;2.63;;;0.88;;
41532;SDS011;27262;-35.248;149.138;2023-05-10T00:09:42;2.13;;;0.90;;
41532;SDS011;27262;-35.248;149.138;2023-05-10T00:12:13;2.17;;;0.88;;
41532;SDS011;27262;-35.248;149.138;2023-05-10T00:14:43;2.47;;;1.25;;
41532;SDS011;27262;-35.248;149.138;2023-05-10T00:17:14;1.92;;;1.42;;
41532;SDS011;27262;-35.248;149.138;2023-05-10T00:19:44;1.70;;;1.27;;
41532;SDS011;27262;-35.248;149.138;2023-05-10T00:22:15;1.27;;;0.75;;
41532;SDS011;27262;-35.248;149.138;2023-05-10T00:24:45;1.88;;;1.10;;
41532;SDS011;27262;-35.248;149.138;2023-05-10T00:27:16;1.20;;;1.08;;
41532;SDS011;27262;-35.248;149.138;2023-05-10T00:29:46;2.55;;;1.20;;
41532;SDS011;27262;-35.248;149.138;2023-05-10T00:32:17;2.05;;;1.20;;
41532;SDS011;27262;-35.248;149.138;2023-05-10T00:34:48;1.25;;;1.08;;
41532;SDS011;27262;-35.248;149.138;2023-05-10T00:37:19;1.88;;;1.13;;
41532;SDS011;27262;-35.248;149.138;2023-05-10T00:39:49;3.45;;;1.00;;
41532;SDS011;27262;-35.248;149.138;2023-05-10T00:42:19;3.85;;;1.10;;
41532;SDS011;27262;-35.248;149.138;2023-05-10T00:44:50;2.53;;;1.73;;
41532;SDS011;27262;-35.248;149.138;2023-05-10T00:47:20;1.00;;;0.90;;
41532;SDS011;27262;-35.248;149.138;2023-05-10T00:49:51;1.83;;;0.90;;
41532;SDS011;27262;-35.248;149.138;2023-05-10T00:52:21;1.95;;;1.10;;
41532;SDS011;27262;-35.248;149.138;2023-05-10T00:54:52;1.77;;;1.05;;
41532;SDS011;27262;-35.248;149.138;2023-05-10T00:57:23;1.50;;;1.00;;
41532;SDS011;27262;-35.248;149.138;2023-05-10T00:59:54;2.35;;;1.13;;
41532;SDS011;27262;-35.248;149.138;2023-05-10T01:02:24;3.47;;;1.40;;
41532;SDS011;27262;-35.248;149.138;2023-05-10T01:04:54;2.72;;;1.20;;
41532;SDS011;27262;-35.248;149.138;2023-05-10T01:07:25;1.30;;;0.82;;
41532;SDS011;27262;-35.248;149.138;2023-05-10T01:09:55;4.57;;;1.13;;
41532;SDS011;27262;-35.248;149.138;2023-05-10T01:12:26;5.18;;;0.98;;
41532;SDS011;27262;-35.248;149.138;2023-05-10T01:14:56;1.17;;;1.02;;
41532;SDS011;27262;-35.248;149.138;2023-05-10T01:17:27;1.10;;;0.93;;
41532;SDS011;27262;-35.248;149.138;2023-05-10T01:19:58;1.88;;;0.95;;
41532;SDS011;27262;-35.248;149.138;2023-05-10T01:29:06;2.85;;;1.00;;
41532;SDS011;27262;-35.248;149.138;2023-05-10T01:32:15;2.15;;;1.00;;
41532;SDS011;27262;-35.248;149.138;2023-05-10T01:37:46;3.00;;;0.88;;
41532;SDS011;27262;-35.248;149.138;2023-05-10T01:40:42;2.45;;;0.98;;
41532;SDS011;27262;-35.248;149.138;2023-05-10T01:46:35;3.88;;;1.13;;
41532;SDS011;27262;-35.248;149.138;2023-05-10T01:49:09;2.13;;;1.00;;
41532;SDS011;27262;-35.248;149.138;2023-05-10T01:51:52;1.55;;;0.90;;
41532;SDS011;27262;-35.248;149.138;2023-05-10T01:54:25;1.20;;;1.10;;
41532;SDS011;27262;-35.248;149.138;2023-05-10T01:57:02;2.22;;;1.23;;
41532;SDS011;27262;-35.248;149.138;2023-05-10T01:59:37;2.22;;;1.30;;
41532;SDS011;27262;-35.248;149.138;2023-05-10T02:02:09;1.30;;;1.10;;
41532;SDS011;27262;-35.248;149.138;2023-05-10T02:04:41;3.33;;;1.30;;
41532;SDS011;27262;-35.248;149.138;2023-05-10T02:07:13;1.98;;;1.08;;
41532;SDS011;27262;-35.248;149.138;2023-05-10T02:09:45;1.27;;;1.17;;
41532;SDS011;27262;-35.248;149.138;2023-05-10T02:12:16;3.72;;;1.60;;
41532;SDS011;27262;-35.248;149.138;2023-05-10T02:14:49;2.40;;;1.63;;
41532;SDS011;27262;-35.248;149.138;2023-05-10T02:17:22;2.22;;;1.80;;
41532;SDS011;27262;-35.248;149.138;2023-05-10T02:19:54;1.80;;;1.42;;
41532;SDS011;27262;-35.248;149.138;2023-05-10T02:22:27;2.28;;;1.70;;
41532;SDS011;27262;-35.248;149.138;2023-05-10T02:24:57;4.10;;;1.60;;
41532;SDS011;27262;-35.248;149.138;2023-05-10T02:27:29;2.05;;;1.63;;
41532;SDS011;27262;-35.248;149.138;2023-05-10T02:30:00;2.33;;;1.70;;
41532;SDS011;27262;-35.248;149.138;2023-05-10T02:32:31;3.60;;;1.58;;
41532;SDS011;27262;-35.248;149.138;2023-05-10T02:35:04;2.40;;;1.63;;
41532;SDS011;27262;-35.248;149.138;2023-05-10T02:37:35;1.42;;;1.33;;
41532;SDS011;27262;-35.248;149.138;2023-05-10T02:40:27;1.45;;;1.35;;
41532;SDS011;27262;-35.248;149.138;2023-05-10T02:42:57;5.63;;;1.88;;
41532;SDS011;27262;-35.248;149.138;2023-05-10T02:45:49;1.77;;;1.58;;
41532;SDS011;27262;-35.248;149.138;2023-05-10T02:48:20;2.35;;;1.85;;
41532;SDS011;27262;-35.248;149.138;2023-05-10T02:50:50;2.75;;;1.50;;
41532;SDS011;27262;-35.248;149.138;2023-05-10T02:53:30;1.63;;;1.20;;
41532;SDS011;27262;-35.248;149.138;2023-05-10T02:56:04;1.90;;;1.55;;
41532;SDS011;27262;-35.248;149.138;2023-05-10T02:58:42;2.05;;;1.38;;
41532;SDS011;27262;-35.248;149.138;2023-05-10T03:01:12;2.58;;;1.60;;
41532;SDS011;27262;-35.248;149.138;2023-05-10T03:03:44;2.22;;;1.92;;
41532;SDS011;27262;-35.248;149.138;2023-05-10T03:06:16;2.60;;;1.90;;
41532;SDS011;27262;-35.248;149.138;2023-05-10T03:08:46;3.72;;;1.88;;
41532;SDS011;27262;-35.248;149.138;2023-05-10T03:14:08;3.30;;;1.92;;
41532;SDS011;27262;-35.248;149.138;2023-05-10T03:16:46;3.53;;;2.00;;
41532;SDS011;27262;-35.248;149.138;2023-05-10T03:19:27;2.13;;;1.92;;
41532;SDS011;27262;-35.248;149.138;2023-05-10T03:22:06;7.68;;;1.77;;
41532;SDS011;27262;-35.248;149.138;2023-05-10T03:24:39;3.08;;;1.60;;
41532;SDS011;27262;-35.248;149.138;2023-05-10T03:27:11;1.60;;;1.50;;
41532;SDS011;27262;-35.248;149.138;2023-05-10T03:29:43;2.38;;;2.17;;
41532;SDS011;27262;-35.248;149.138;2023-05-10T03:32:15;3.70;;;1.65;;
41532;SDS011;27262;-35.248;149.138;2023-05-10T03:34:45;3.20;;;1.73;;
41532;SDS011;27262;-35.248;149.138;2023-05-10T03:37:15;3.00;;;1.55;;
41532;SDS011;27262;-35.248;149.138;2023-05-10T03:39:45;1.73;;;1.63;;
41532;SDS011;27262;-35.248;149.138;2023-05-10T03:42:15;2.22;;;1.88;;
41532;SDS011;27262;-35.248;149.138;2023-05-10T03:44:46;2.75;;;1.50;;
41532;SDS011;27262;-35.248;149.138;2023-05-10T03:47:17;1.90;;;1.80;;
41532;SDS011;27262;-35.248;149.138;2023-05-10T03:49:48;2.83;;;1.58;;
41532;SDS011;27262;-35.248;149.138;2023-05-10T03:52:18;2.17;;;1.52;;
41532;SDS011;27262;-35.248;149.138;2023-05-10T03:54:49;2.80;;;1.70;;
41532;SDS011;27262;-35.248;149.138;2023-05-10T03:57:19;1.88;;;1.42;;
41532;SDS011;27262;-35.248;149.138;2023-05-10T03:59:49;1.75;;;1.52;;
41532;SDS011;27262;-35.248;149.138;2023-05-10T04:02:20;2.47;;;1.55;;
41532;SDS011;27262;-35.248;149.138;2023-05-10T04:04:50;1.95;;;1.45;;
41532;SDS011;27262;-35.248;149.138;2023-05-10T04:07:20;1.75;;;1.65;;
41532;SDS011;27262;-35.248;149.138;2023-05-10T04:09:51;1.73;;;1.50;;
41532;SDS011;27262;-35.248;149.138;2023-05-10T04:12:21;2.90;;;1.90;;
41532;SDS011;27262;-35.248;149.138;2023-05-10T04:14:51;3.00;;;1.40;;
41532;SDS011;27262;-35.248;149.138;2023-05-10T04:17:21;1.45;;;1.35;;
41532;SDS011;27262;-35.248;149.138;2023-05-10T04:19:52;6.65;;;1.55;;
41532;SDS011;27262;-35.248;149.138;2023-05-10T04:22:23;1.60;;;1.50;;
41532;SDS011;27262;-35.248;149.138;2023-05-10T04:24:53;3.17;;;1.50;;
41532;SDS011;27262;-35.248;149.138;2023-05-10T04:27:24;2.05;;;1.85;;
41532;SDS011;27262;-35.248;149.138;2023-05-10T04:29:54;1.67;;;1.58;;
41532;SDS011;27262;-35.248;149.138;2023-05-10T04:32:25;1.95;;;1.60;;
41532;SDS011;27262;-35.248;149.138;2023-05-10T04:34:55;1.95;;;1.48;;
41532;SDS011;27262;-35.248;149.138;2023-05-10T04:37:26;4.03;;;1.30;;
41532;SDS011;27262;-35.248;149.138;2023-05-10T04:39:56;1.70;;;1.38;;
41532;SDS011;27262;-35.248;149.138;2023-05-10T04:42:28;2.53;;;1.50;;
41532;SDS011;27262;-35.248;149.138;2023-05-10T04:44:59;1.50;;;1.40;;
41532;SDS011;27262;-35.248;149.138;2023-05-10T04:47:29;2.38;;;1.40;;
41532;SDS011;27262;-35.248;149.138;2023-05-10T04:50:00;1.48;;;1.20;;
41532;SDS011;27262;-35.248;149.138;2023-05-10T04:52:30;2.47;;;1.67;;
41532;SDS011;27262;-35.248;149.138;2023-05-10T04:55:00;1.85;;;1.40;;
41532;SDS011;27262;-35.248;149.138;2023-05-10T04:57:30;3.47;;;1.60;;
41532;SDS011;27262;-35.248;149.138;2023-05-10T05:00:01;1.65;;;1.08;;
41532;SDS011;27262;-35.248;149.138;2023-05-10T05:02:31;2.13;;;1.35;;
41532;SDS011;27262;-35.248;149.138;2023-05-10T05:05:01;1.75;;;1.42;;
41532;SDS011;27262;-35.248;149.138;2023-05-10T05:07:32;3.40;;;1.30;;
41532;SDS011;27262;-35.248;149.138;2023-05-10T05:10:02;4.07;;;1.15;;
41532;SDS011;27262;-35.248;149.138;2023-05-10T05:12:34;2.35;;;1.20;;
41532;SDS011;27262;-35.248;149.138;2023-05-10T05:15:04;2.25;;;1.40;;
41532;SDS011;27262;-35.248;149.138;2023-05-10T05:17:36;2.95;;;1.55;;
41532;SDS011;27262;-35.248;149.138;2023-05-10T05:20:07;2.00;;;1.40;;
41532;SDS011;27262;-35.248;149.138;2023-05-10T05:22:37;1.58;;;1.17;;
41532;SDS011;27262;-35.248;149.138;2023-05-10T05:25:08;4.45;;;1.27;;
41532;SDS011;27262;-35.248;149.138;2023-05-10T05:27:38;3.45;;;1.50;;
41532;SDS011;27262;-35.248;149.138;2023-05-10T05:30:09;2.45;;;1.30;;
41532;SDS011;27262;-35.248;149.138;2023-05-10T05:32:40;1.30;;;1.15;;
41532;SDS011;27262;-35.248;149.138;2023-05-10T05:35:10;1.65;;;1.30;;
41532;SDS011;27262;-35.248;149.138;2023-05-10T05:37:41;1.38;;;1.17;;
41532;SDS011;27262;-35.248;149.138;2023-05-10T05:40:14;1.55;;;1.30;;
41532;SDS011;27262;-35.248;149.138;2023-05-10T05:42:44;1.20;;;1.10;;
41532;SDS011;27262;-35.248;149.138;2023-05-10T05:45:15;2.35;;;1.20;;
41532;SDS011;27262;-35.248;149.138;2023-05-10T05:47:46;3.28;;;1.52;;
41532;SDS011;27262;-35.248;149.138;2023-05-10T05:50:16;2.30;;;1.40;;
41532;SDS011;27262;-35.248;149.138;2023-05-10T05:52:46;2.85;;;1.17;;
41532;SDS011;27262;-35.248;149.138;2023-05-10T05:55:17;3.03;;;1.48;;
41532;SDS011;27262;-35.248;149.138;2023-05-10T05:57:47;2.65;;;1.40;;
41532;SDS011;27262;-35.248;149.138;2023-05-10T06:00:17;1.50;;;1.40;;
41532;SDS011;27262;-35.248;149.138;2023-05-10T06:02:48;2.15;;;1.55;;
41532;SDS011;27262;-35.248;149.138;2023-05-10T06:05:18;0.90;;;0.88;;
41532;SDS011;27262;-35.248;149.138;2023-05-10T06:07:50;1.63;;;1.20;;
41532;SDS011;27262;-35.248;149.138;2023-05-10T06:10:20;2.75;;;1.30;;
41532;SDS011;27262;-35.248;149.138;2023-05-10T06:12:51;8.82;;;1.33;;
41532;SDS011;27262;-35.248;149.138;2023-05-10T06:15:21;3.03;;;1.00;;
41532;SDS011;27262;-35.248;149.138;2023-05-10T06:17:52;7.40;;;1.42;;
41532;SDS011;27262;-35.248;149.138;2023-05-10T06:20:22;4.28;;;1.67;;
41532;SDS011;27262;-35.248;149.138;2023-05-10T06:22:52;6.70;;;1.90;;
41532;SDS011;27262;-35.248;149.138;2023-05-10T06:25:23;6.72;;;1.60;;
41532;SDS011;27262;-35.248;149.138;2023-05-10T06:27:53;2.92;;;1.38;;
41532;SDS011;27262;-35.248;149.138;2023-05-10T06:30:26;2.13;;;1.60;;
41532;SDS011;27262;-35.248;149.138;2023-05-10T06:32:56;2.72;;;1.60;;
41532;SDS011;27262;-35.248;149.138;2023-05-10T06:35:27;5.55;;;1.45;;
41532;SDS011;27262;-35.248;149.138;2023-05-10T06:37:58;5.32;;;1.40;;
41532;SDS011;27262;-35.248;149.138;2023-05-10T06:40:28;5.60;;;1.77;;
41532;SDS011;27262;-35.248;149.138;2023-05-10T06:42:59;2.17;;;1.08;;
41532;SDS011;27262;-35.248;149.138;2023-05-10T06:45:29;2.35;;;1.13;;
41532;SDS011;27262;-35.248;149.138;2023-05-10T06:48:00;3.28;;;1.42;;
41532;SDS011;27262;-35.248;149.138;2023-05-10T06:50:30;1.73;;;1.00;;
41532;SDS011;27262;-35.248;149.138;2023-05-10T06:53:00;1.83;;;1.10;;
41532;SDS011;27262;-35.248;149.138;2023-05-10T06:55:31;1.98;;;1.40;;
41532;SDS011;27262;-35.248;149.138;2023-05-10T06:58:02;5.65;;;1.30;;
41532;SDS011;27262;-35.248;149.138;2023-05-10T07:00:32;2.55;;;1.10;;
41532;SDS011;27262;-35.248;149.138;2023-05-10T07:03:03;1.42;;;1.05;;
41532;SDS011;27262;-35.248;149.138;2023-05-10T07:05:33;2.47;;;1.33;;
41532;SDS011;27262;-35.248;149.138;2023-05-10T07:08:04;1.88;;;1.33;;
41532;SDS011;27262;-35.248;149.138;2023-05-10T07:10:35;2.83;;;1.20;;
41532;SDS011;27262;-35.248;149.138;2023-05-10T07:13:05;2.90;;;1.10;;
41532;SDS011;27262;-35.248;149.138;2023-05-10T07:15:36;2.13;;;0.98;;
41532;SDS011;27262;-35.248;149.138;2023-05-10T07:18:06;2.17;;;1.17;;
41532;SDS011;27262;-35.248;149.138;2023-05-10T07:20:36;1.33;;;1.00;;
41532;SDS011;27262;-35.248;149.138;2023-05-10T07:23:06;2.85;;;1.30;;
41532;SDS011;27262;-35.248;149.138;2023-05-10T07:25:37;2.22;;;1.00;;
41532;SDS011;27262;-35.248;149.138;2023-05-10T07:28:07;2.00;;;1.33;;
41532;SDS011;27262;-35.248;149.138;2023-05-10T07:30:37;1.52;;;1.10;;
41532;SDS011;27262;-35.248;149.138;2023-05-10T07:33:08;2.05;;;1.25;;
41532;SDS011;27262;-35.248;149.138;2023-05-10T07:35:39;3.47;;;1.55;;
41532;SDS011;27262;-35.248;149.138;2023-05-10T07:38:10;3.80;;;0.98;;
41532;SDS011;27262;-35.248;149.138;2023-05-10T07:40:40;3.30;;;1.20;;
41532;SDS011;27262;-35.248;149.138;2023-05-10T07:43:11;2.42;;;1.10;;
41532;SDS011;27262;-35.248;149.138;2023-05-10T07:45:41;3.17;;;1.52;;
41532;SDS011;27262;-35.248;149.138;2023-05-10T07:48:11;5.45;;;1.10;;
41532;SDS011;27262;-35.248;149.138;2023-05-10T07:50:42;3.15;;;1.40;;
41532;SDS011;27262;-35.248;149.138;2023-05-10T07:53:12;1.92;;;1.20;;
41532;SDS011;27262;-35.248;149.138;2023-05-10T07:55:42;3.53;;;1.10;;
41532;SDS011;27262;-35.248;149.138;2023-05-10T07:58:13;1.67;;;1.00;;
41532;SDS011;27262;-35.248;149.138;2023-05-10T08:00:43;3.80;;;1.23;;
41532;SDS011;27262;-35.248;149.138;2023-05-10T08:03:14;2.78;;;1.27;;
41532;SDS011;27262;-35.248;149.138;2023-05-10T08:05:44;3.83;;;1.42;;
41532;SDS011;27262;-35.248;149.138;2023-05-10T08:08:14;1.35;;;1.10;;
41532;SDS011;27262;-35.248;149.138;2023-05-10T08:10:54;2.25;;;1.10;;
41532;SDS011;27262;-35.248;149.138;2023-05-10T08:13:24;4.32;;;1.25;;
41532;SDS011;27262;-35.248;149.138;2023-05-10T08:15:54;4.45;;;1.20;;
41532;SDS011;27262;-35.248;149.138;2023-05-10T08:18:25;2.15;;;1.20;;
41532;SDS011;27262;-35.248;149.138;2023-05-10T08:20:56;2.67;;;1.20;;
41532;SDS011;27262;-35.248;149.138;2023-05-10T08:23:26;5.63;;;1.40;;
41532;SDS011;27262;-35.248;149.138;2023-05-10T08:25:56;9.15;;;2.13;;
41532;SDS011;27262;-35.248;149.138;2023-05-10T08:28:26;3.33;;;1.52;;
41532;SDS011;27262;-35.248;149.138;2023-05-10T08:30:57;2.05;;;1.30;;
41532;SDS011;27262;-35.248;149.138;2023-05-10T08:33:27;4.22;;;1.88;;
41532;SDS011;27262;-35.248;149.138;2023-05-10T08:35:57;6.18;;;1.90;;
41532;SDS011;27262;-35.248;149.138;2023-05-10T08:38:28;4.80;;;2.42;;
41532;SDS011;27262;-35.248;149.138;2023-05-10T08:40:58;4.13;;;2.03;;
41532;SDS011;27262;-35.248;149.138;2023-05-10T08:43:30;3.45;;;2.00;;
41532;SDS011;27262;-35.248;149.138;2023-05-10T08:46:01;4.03;;;2.42;;
41532;SDS011;27262;-35.248;149.138;2023-05-10T08:48:34;3.90;;;1.92;;
41532;SDS011;27262;-35.248;149.138;2023-05-10T08:51:05;3.53;;;2.20;;
41532;SDS011;27262;-35.248;149.138;2023-05-10T08:53:36;4.78;;;2.33;;
41532;SDS011;27262;-35.248;149.138;2023-05-10T08:56:07;6.68;;;2.28;;
41532;SDS011;27262;-35.248;149.138;2023-05-10T08:58:39;5.03;;;2.00;;
41532;SDS011;27262;-35.248;149.138;2023-05-10T09:01:09;5.38;;;2.20;;
41532;SDS011;27262;-35.248;149.138;2023-05-10T09:03:41;3.72;;;2.10;;
41532;SDS011;27262;-35.248;149.138;2023-05-10T09:06:12;4.45;;;2.15;;
41532;SDS011;27262;-35.248;149.138;2023-05-10T09:08:43;3.00;;;2.08;;
41532;SDS011;27262;-35.248;149.138;2023-05-10T09:11:15;3.03;;;1.85;;
41532;SDS011;27262;-35.248;149.138;2023-05-10T09:13:47;2.90;;;2.10;;
41532;SDS011;27262;-35.248;149.138;2023-05-10T09:16:19;3.17;;;2.25;;
41532;SDS011;27262;-35.248;149.138;2023-05-10T09:18:49;3.67;;;2.03;;
41532;SDS011;27262;-35.248;149.138;2023-05-10T09:21:19;2.20;;;2.00;;
41532;SDS011;27262;-35.248;149.138;2023-05-10T09:23:50;4.32;;;1.92;;
41532;SDS011;27262;-35.248;149.138;2023-05-10T09:26:23;2.88;;;1.77;;
41532;SDS011;27262;-35.248;149.138;2023-05-10T09:28:54;5.25;;;2.60;;
41532;SDS011;27262;-35.248;149.138;2023-05-10T09:31:48;2.63;;;1.55;;
41532;SDS011;27262;-35.248;149.138;2023-05-10T09:34:30;3.25;;;2.25;;
41532;SDS011;27262;-35.248;149.138;2023-05-10T09:37:03;6.10;;;1.70;;
41532;SDS011;27262;-35.248;149.138;2023-05-10T09:39:35;2.63;;;2.10;;
41532;SDS011;27262;-35.248;149.138;2023-05-10T09:42:09;3.88;;;1.85;;
41532;SDS011;27262;-35.248;149.138;2023-05-10T09:44:40;2.17;;;1.92;;
41532;SDS011;27262;-35.248;149.138;2023-05-10T09:47:14;6.40;;;2.30;;
41532;SDS011;27262;-35.248;149.138;2023-05-10T09:49:50;6.13;;;2.22;;
41532;SDS011;27262;-35.248;149.138;2023-05-10T09:52:21;2.65;;;2.17;;
41532;SDS011;27262;-35.248;149.138;2023-05-10T09:54:52;2.78;;;1.75;;
41532;SDS011;27262;-35.248;149.138;2023-05-10T09:57:24;2.10;;;1.90;;
41532;SDS011;27262;-35.248;149.138;2023-05-10T09:59:54;2.20;;;2.00;;
41532;SDS011;27262;-35.248;149.138;2023-05-10T10:02:29;2.75;;;2.15;;
41532;SDS011;27262;-35.248;149.138;2023-05-10T10:05:03;3.25;;;2.17;;
41532;SDS011;27262;-35.248;149.138;2023-05-10T10:07:35;3.38;;;2.10;;
41532;SDS011;27262;-35.248;149.138;2023-05-10T10:10:05;2.53;;;2.20;;
41532;SDS011;27262;-35.248;149.138;2023-05-10T10:12:40;3.80;;;2.30;;
41532;SDS011;27262;-35.248;149.138;2023-05-10T10:15:11;3.45;;;2.33;;
41532;SDS011;27262;-35.248;149.138;2023-05-10T10:17:43;2.53;;;2.08;;
41532;SDS011;27262;-35.248;149.138;2023-05-10T10:20:14;2.13;;;1.88;;
41532;SDS011;27262;-35.248;149.138;2023-05-10T10:22:46;3.03;;;2.20;;
41532;SDS011;27262;-35.248;149.138;2023-05-10T10:25:16;2.53;;;2.10;;
41532;SDS011;27262;-35.248;149.138;2023-05-10T10:36:11;2.90;;;2.40;;
41532;SDS011;27262;-35.248;149.138;2023-05-10T10:41:35;2.75;;;1.73;;
41532;SDS011;27262;-35.248;149.138;2023-05-10T10:47:03;2.58;;;2.33;;
41532;SDS011;27262;-35.248;149.138;2023-05-10T10:49:51;2.20;;;2.00;;
41532;SDS011;27262;-35.248;149.138;2023-05-10T10:52:45;2.58;;;2.03;;
41532;SDS011;27262;-35.248;149.138;2023-05-10T10:55:22;4.07;;;2.17;;
41532;SDS011;27262;-35.248;149.138;2023-05-10T10:57:55;2.50;;;2.05;;
41532;SDS011;27262;-35.248;149.138;2023-05-10T11:00:30;5.50;;;2.88;;
41532;SDS011;27262;-35.248;149.138;2023-05-10T11:03:11;4.00;;;2.15;;
41532;SDS011;27262;-35.248;149.138;2023-05-10T11:05:46;3.03;;;2.35;;
41532;SDS011;27262;-35.248;149.138;2023-05-10T11:08:28;2.58;;;2.33;;
41532;SDS011;27262;-35.248;149.138;2023-05-10T11:11:05;3.05;;;2.67;;
41532;SDS011;27262;-35.248;149.138;2023-05-10T11:13:46;2.92;;;2.33;;
41532;SDS011;27262;-35.248;149.138;2023-05-10T11:16:20;2.38;;;2.17;;
41532;SDS011;27262;-35.248;149.138;2023-05-10T11:19:06;2.45;;;2.25;;
41532;SDS011;27262;-35.248;149.138;2023-05-10T11:21:51;3.75;;;2.05;;
41532;SDS011;27262;-35.248;149.138;2023-05-10T11:24:55;2.60;;;2.33;;
41532;SDS011;27262;-35.248;149.138;2023-05-10T11:27:26;2.60;;;2.40;;
41532;SDS011;27262;-35.248;149.138;2023-05-10T11:29:57;2.60;;;2.40;;
41532;SDS011;27262;-35.248;149.138;2023-05-10T11:32:30;2.78;;;2.58;;
41532;SDS011;27262;-35.248;149.138;2023-05-10T11:35:06;3.38;;;2.72;;
41532;SDS011;27262;-35.248;149.138;2023-05-10T11:37:41;4.60;;;2.97;;
41532;SDS011;27262;-35.248;149.138;2023-05-10T11:40:12;4.85;;;3.15;;
41532;SDS011;27262;-35.248;149.138;2023-05-10T11:42:43;4.93;;;2.50;;
41532;SDS011;27262;-35.248;149.138;2023-05-10T11:45:14;7.65;;;2.70;;
41532;SDS011;27262;-35.248;149.138;2023-05-10T11:47:47;5.20;;;3.15;;
41532;SDS011;27262;-35.248;149.138;2023-05-10T11:50:18;4.68;;;2.78;;
41532;SDS011;27262;-35.248;149.138;2023-05-10T11:52:52;4.20;;;2.90;;
41532;SDS011;27262;-35.248;149.138;2023-05-10T11:55:23;7.10;;;3.17;;
41532;SDS011;27262;-35.248;149.138;2023-05-10T11:57:54;3.80;;;3.40;;
41532;SDS011;27262;-35.248;149.138;2023-05-10T12:00:24;6.15;;;3.83;;
41532;SDS011;27262;-35.248;149.138;2023-05-10T12:02:54;4.85;;;3.53;;
41532;SDS011;27262;-35.248;149.138;2023-05-10T12:05:27;5.78;;;3.17;;
41532;SDS011;27262;-35.248;149.138;2023-05-10T12:08:11;7.32;;;3.72;;
41532;SDS011;27262;-35.248;149.138;2023-05-10T12:10:53;4.38;;;3.58;;
41532;SDS011;27262;-35.248;149.138;2023-05-10T12:13:38;4.85;;;3.67;;
41532;SDS011;27262;-35.248;149.138;2023-05-10T12:16:16;4.80;;;4.07;;
41532;SDS011;27262;-35.248;149.138;2023-05-10T12:18:52;4.80;;;4.03;;
41532;SDS011;27262;-35.248;149.138;2023-05-10T12:21:23;3.45;;;3.15;;
41532;SDS011;27262;-35.248;149.138;2023-05-10T12:24:00;3.30;;;3.00;;
41532;SDS011;27262;-35.248;149.138;2023-05-10T12:26:33;3.70;;;2.80;;
41532;SDS011;27262;-35.248;149.138;2023-05-10T12:29:18;4.10;;;3.63;;
41532;SDS011;27262;-35.248;149.138;2023-05-10T12:31:59;4.35;;;3.50;;
41532;SDS011;27262;-35.248;149.138;2023-05-10T12:34:33;5.18;;;3.20;;
41532;SDS011;27262;-35.248;149.138;2023-05-10T12:37:07;5.38;;;3.72;;
41532;SDS011;27262;-35.248;149.138;2023-05-10T12:39:43;3.42;;;3.05;;
41532;SDS011;27262;-35.248;149.138;2023-05-10T12:42:14;3.60;;;3.25;;
41532;SDS011;27262;-35.248;149.138;2023-05-10T12:44:45;3.47;;;3.17;;
41532;SDS011;27262;-35.248;149.138;2023-05-10T12:47:16;6.07;;;3.47;;
41532;SDS011;27262;-35.248;149.138;2023-05-10T12:49:46;3.78;;;3.30;;
41532;SDS011;27262;-35.248;149.138;2023-05-10T12:52:16;3.50;;;3.20;;
41532;SDS011;27262;-35.248;149.138;2023-05-10T12:54:46;3.90;;;3.30;;
41532;SDS011;27262;-35.248;149.138;2023-05-10T12:57:17;4.60;;;3.60;;
41532;SDS011;27262;-35.248;149.138;2023-05-10T12:59:49;3.97;;;3.20;;
41532;SDS011;27262;-35.248;149.138;2023-05-10T13:02:19;3.30;;;2.70;;
41532;SDS011;27262;-35.248;149.138;2023-05-10T13:04:52;4.25;;;3.22;;
41532;SDS011;27262;-35.248;149.138;2023-05-10T13:07:22;3.58;;;3.28;;
41532;SDS011;27262;-35.248;149.138;2023-05-10T13:09:53;3.50;;;3.20;;
41532;SDS011;27262;-35.248;149.138;2023-05-10T13:12:23;4.50;;;3.38;;
41532;SDS011;27262;-35.248;149.138;2023-05-10T13:14:54;3.58;;;2.80;;
41532;SDS011;27262;-35.248;149.138;2023-05-10T13:17:25;3.80;;;3.45;;
41532;SDS011;27262;-35.248;149.138;2023-05-10T13:19:56;3.28;;;2.97;;
41532;SDS011;27262;-35.248;149.138;2023-05-10T13:22:27;3.95;;;3.00;;
41532;SDS011;27262;-35.248;149.138;2023-05-10T13:25:06;4.20;;;2.90;;
41532;SDS011;27262;-35.248;149.138;2023-05-10T13:27:40;3.00;;;2.65;;
41532;SDS011;27262;-35.248;149.138;2023-05-10T13:30:11;3.05;;;2.42;;
41532;SDS011;27262;-35.248;149.138;2023-05-10T13:32:41;3.22;;;2.45;;
41532;SDS011;27262;-35.248;149.138;2023-05-10T13:35:12;3.08;;;2.50;;
41532;SDS011;27262;-35.248;149.138;2023-05-10T13:37:42;3.00;;;2.70;;
41532;SDS011;27262;-35.248;149.138;2023-05-10T13:40:12;2.75;;;2.22;;
41532;SDS011;27262;-35.248;149.138;2023-05-10T13:42:44;2.53;;;2.25;;
41532;SDS011;27262;-35.248;149.138;2023-05-10T13:45:14;3.05;;;2.30;;
41532;SDS011;27262;-35.248;149.138;2023-05-10T13:47:45;2.50;;;2.30;;
41532;SDS011;27262;-35.248;149.138;2023-05-10T13:50:15;2.85;;;2.15;;
41532;SDS011;27262;-35.248;149.138;2023-05-10T13:52:46;2.38;;;1.88;;
41532;SDS011;27262;-35.248;149.138;2023-05-10T13:55:16;2.35;;;2.00;;
41532;SDS011;27262;-35.248;149.138;2023-05-10T13:57:47;2.72;;;1.90;;
41532;SDS011;27262;-35.248;149.138;2023-05-10T14:00:18;2.55;;;2.00;;
41532;SDS011;27262;-35.248;149.138;2023-05-10T14:02:48;2.33;;;1.95;;
41532;SDS011;27262;-35.248;149.138;2023-05-10T14:05:18;2.35;;;1.95;;
41532;SDS011;27262;-35.248;149.138;2023-05-10T14:07:52;2.13;;;1.77;;
41532;SDS011;27262;-35.248;149.138;2023-05-10T14:10:23;1.90;;;1.70;;
41532;SDS011;27262;-35.248;149.138;2023-05-10T14:12:53;2.20;;;1.70;;
41532;SDS011;27262;-35.248;149.138;2023-05-10T14:15:24;2.17;;;1.55;;
41532;SDS011;27262;-35.248;149.138;2023-05-10T14:17:54;1.77;;;1.67;;
41532;SDS011;27262;-35.248;149.138;2023-05-10T14:20:25;1.73;;;1.58;;
41532;SDS011;27262;-35.248;149.138;2023-05-10T14:22:55;1.55;;;1.40;;
41532;SDS011;27262;-35.248;149.138;2023-05-10T14:25:26;1.83;;;1.70;;
41532;SDS011;27262;-35.248;149.138;2023-05-10T14:27:56;1.52;;;1.42;;
41532;SDS011;27262;-35.248;149.138;2023-05-10T14:30:26;1.45;;;1.20;;
41532;SDS011;27262;-35.248;149.138;2023-05-10T14:32:57;1.30;;;1.20;;
41532;SDS011;27262;-35.248;149.138;2023-05-10T14:35:29;1.27;;;1.17;;
41532;SDS011;27262;-35.248;149.138;2023-05-10T14:37:59;1.20;;;1.10;;
41532;SDS011;27262;-35.248;149.138;2023-05-10T14:40:31;1.30;;;1.20;;
41532;SDS011;27262;-35.248;149.138;2023-05-10T14:43:01;1.48;;;1.38;;
41532;SDS011;27262;-35.248;149.138;2023-05-10T14:45:31;1.40;;;1.30;;
41532;SDS011;27262;-35.248;149.138;2023-05-10T14:48:02;1.48;;;1.10;;
41532;SDS011;27262;-35.248;149.138;2023-05-10T14:50:33;1.63;;;1.42;;
41532;SDS011;27262;-35.248;149.138;2023-05-10T14:53:03;1.23;;;1.13;;
41532;SDS011;27262;-35.248;149.138;2023-05-10T14:55:33;2.28;;;1.30;;
41532;SDS011;27262;-35.248;149.138;2023-05-10T14:58:04;1.40;;;1.30;;
41532;SDS011;27262;-35.248;149.138;2023-05-10T15:00:34;1.25;;;1.08;;
41532;SDS011;27262;-35.248;149.138;2023-05-10T15:03:05;1.42;;;1.25;;
41532;SDS011;27262;-35.248;149.138;2023-05-10T15:05:36;1.20;;;1.08;;
41532;SDS011;27262;-35.248;149.138;2023-05-10T15:08:06;1.20;;;1.05;;